Terminal Aerodrome Forecast
Issued by NWS North Platte, NE

Home | Current Version | Previous Version | Text Only | Print | Product List | Glossary Off
Versions: 1 2 3 4 5 6 7 8 9 10 11 12 13 14 15 16 17 18 19

000
FTUS43 KLBF 161123
TAFVTN
TAF
KVTN 161123Z 1612/1712 33012KT P6SM BKN030
     FM161600 34011KT P6SM SCT030 BKN150
     FM161900 34012KT P6SM BKN150
     FM170200 27005KT P6SM SKC=

USA.gov is the U.S. government's official web portal to all federal, state and local government web resources and services.